sensor_id;sensor_type;location;lat;lon;timestamp;P1;durP1;ratioP1;P2;durP2;ratioP2
20855;SDS011;63058;49.424;8.420;2023-03-02T00:01:47;10.50;;;6.27;;
20855;SDS011;63058;49.424;8.420;2023-03-02T00:07:30;8.87;;;6.17;;
20855;SDS011;63058;49.424;8.420;2023-03-02T00:09:57;9.47;;;6.17;;
20855;SDS011;63058;49.424;8.420;2023-03-02T00:12:25;10.77;;;6.63;;
20855;SDS011;63058;49.424;8.420;2023-03-02T00:14:52;11.17;;;6.97;;
20855;SDS011;63058;49.424;8.420;2023-03-02T00:17:18;11.53;;;6.90;;
20855;SDS011;63058;49.424;8.420;2023-03-02T00:19:51;9.90;;;6.37;;
20855;SDS011;63058;49.424;8.420;2023-03-02T00:22:18;11.43;;;7.00;;
20855;SDS011;63058;49.424;8.420;2023-03-02T00:24:43;12.33;;;7.23;;
20855;SDS011;63058;49.424;8.420;2023-03-02T00:27:09;11.03;;;6.97;;
20855;SDS011;63058;49.424;8.420;2023-03-02T00:29:34;12.83;;;7.20;;
20855;SDS011;63058;49.424;8.420;2023-03-02T00:32:00;11.20;;;7.43;;
20855;SDS011;63058;49.424;8.420;2023-03-02T00:34:27;11.30;;;7.60;;
20855;SDS011;63058;49.424;8.420;2023-03-02T00:36:56;12.03;;;7.60;;
20855;SDS011;63058;49.424;8.420;2023-03-02T00:39:22;11.20;;;6.73;;
20855;SDS011;63058;49.424;8.420;2023-03-02T00:41:47;11.93;;;6.80;;
20855;SDS011;63058;49.424;8.420;2023-03-02T00:44:13;11.13;;;7.23;;
20855;SDS011;63058;49.424;8.420;2023-03-02T00:46:41;12.67;;;7.60;;
20855;SDS011;63058;49.424;8.420;2023-03-02T00:49:08;12.60;;;7.60;;
20855;SDS011;63058;49.424;8.420;2023-03-02T00:51:34;12.13;;;8.03;;
20855;SDS011;63058;49.424;8.420;2023-03-02T00:54:00;13.57;;;8.00;;
20855;SDS011;63058;49.424;8.420;2023-03-02T00:56:26;12.90;;;8.37;;
20855;SDS011;63058;49.424;8.420;2023-03-02T00:58:52;13.07;;;7.90;;
20855;SDS011;63058;49.424;8.420;2023-03-02T01:01:18;12.10;;;8.30;;
20855;SDS011;63058;49.424;8.420;2023-03-02T01:03:44;13.33;;;7.33;;
20855;SDS011;63058;49.424;8.420;2023-03-02T01:06:16;11.20;;;7.50;;
20855;SDS011;63058;49.424;8.420;2023-03-02T01:08:43;11.60;;;7.17;;
20855;SDS011;63058;49.424;8.420;2023-03-02T01:11:12;14.77;;;8.40;;
20855;SDS011;63058;49.424;8.420;2023-03-02T01:13:40;13.53;;;8.17;;
20855;SDS011;63058;49.424;8.420;2023-03-02T01:16:05;12.33;;;7.27;;
20855;SDS011;63058;49.424;8.420;2023-03-02T01:18:32;12.40;;;8.10;;
20855;SDS011;63058;49.424;8.420;2023-03-02T01:20:59;14.00;;;8.73;;
20855;SDS011;63058;49.424;8.420;2023-03-02T01:23:26;14.43;;;8.47;;
20855;SDS011;63058;49.424;8.420;2023-03-02T01:25:52;13.50;;;8.33;;
20855;SDS011;63058;49.424;8.420;2023-03-02T01:28:18;12.10;;;7.53;;
20855;SDS011;63058;49.424;8.420;2023-03-02T01:30:43;12.90;;;7.33;;
20855;SDS011;63058;49.424;8.420;2023-03-02T01:33:09;11.57;;;7.43;;
20855;SDS011;63058;49.424;8.420;2023-03-02T01:35:35;13.90;;;7.90;;
20855;SDS011;63058;49.424;8.420;2023-03-02T01:38:00;11.20;;;7.20;;
20855;SDS011;63058;49.424;8.420;2023-03-02T01:40:26;9.47;;;6.73;;
20855;SDS011;63058;49.424;8.420;2023-03-02T01:42:54;12.20;;;7.77;;
20855;SDS011;63058;49.424;8.420;2023-03-02T01:48:16;11.30;;;7.23;;
20855;SDS011;63058;49.424;8.420;2023-03-02T01:50:49;12.60;;;7.47;;
20855;SDS011;63058;49.424;8.420;2023-03-02T01:53:17;12.03;;;7.63;;
20855;SDS011;63058;49.424;8.420;2023-03-02T01:55:44;13.87;;;8.37;;
20855;SDS011;63058;49.424;8.420;2023-03-02T01:58:11;10.97;;;7.03;;
20855;SDS011;63058;49.424;8.420;2023-03-02T02:00:39;11.47;;;7.17;;
20855;SDS011;63058;49.424;8.420;2023-03-02T02:03:16;13.03;;;7.20;;
20855;SDS011;63058;49.424;8.420;2023-03-02T02:05:57;10.63;;;7.10;;
20855;SDS011;63058;49.424;8.420;2023-03-02T02:08:33;11.90;;;7.53;;
20855;SDS011;63058;49.424;8.420;2023-03-02T02:10:58;13.97;;;8.40;;
20855;SDS011;63058;49.424;8.420;2023-03-02T02:13:24;12.07;;;7.77;;
20855;SDS011;63058;49.424;8.420;2023-03-02T02:15:50;11.97;;;8.07;;
20855;SDS011;63058;49.424;8.420;2023-03-02T02:18:16;14.20;;;9.20;;
20855;SDS011;63058;49.424;8.420;2023-03-02T02:20:42;16.13;;;9.73;;
20855;SDS011;63058;49.424;8.420;2023-03-02T02:28:25;13.80;;;8.43;;
20855;SDS011;63058;49.424;8.420;2023-03-02T02:31:20;13.47;;;9.10;;
20855;SDS011;63058;49.424;8.420;2023-03-02T02:33:54;14.93;;;9.63;;
20855;SDS011;63058;49.424;8.420;2023-03-02T02:36:24;14.37;;;8.70;;
20855;SDS011;63058;49.424;8.420;2023-03-02T02:38:57;12.43;;;7.97;;
20855;SDS011;63058;49.424;8.420;2023-03-02T02:41:28;12.83;;;7.80;;
20855;SDS011;63058;49.424;8.420;2023-03-02T02:43:58;12.10;;;7.17;;
20855;SDS011;63058;49.424;8.420;2023-03-02T02:46:24;13.50;;;7.40;;
20855;SDS011;63058;49.424;8.420;2023-03-02T02:48:50;12.10;;;8.07;;
20855;SDS011;63058;49.424;8.420;2023-03-02T02:51:20;11.77;;;7.73;;
20855;SDS011;63058;49.424;8.420;2023-03-02T02:53:57;13.97;;;8.77;;
20855;SDS011;63058;49.424;8.420;2023-03-02T02:56:35;14.27;;;9.40;;
20855;SDS011;63058;49.424;8.420;2023-03-02T02:59:12;14.03;;;8.70;;
20855;SDS011;63058;49.424;8.420;2023-03-02T03:01:48;14.77;;;9.30;;
20855;SDS011;63058;49.424;8.420;2023-03-02T03:04:19;13.10;;;8.20;;
20855;SDS011;63058;49.424;8.420;2023-03-02T03:06:48;14.20;;;8.57;;
20855;SDS011;63058;49.424;8.420;2023-03-02T03:09:22;11.53;;;8.03;;
20855;SDS011;63058;49.424;8.420;2023-03-02T03:11:49;14.00;;;9.30;;
20855;SDS011;63058;49.424;8.420;2023-03-02T03:14:19;16.17;;;9.13;;
20855;SDS011;63058;49.424;8.420;2023-03-02T03:16:48;13.67;;;8.60;;
20855;SDS011;63058;49.424;8.420;2023-03-02T03:21:41;14.33;;;8.33;;
20855;SDS011;63058;49.424;8.420;2023-03-02T03:24:06;15.20;;;9.33;;
20855;SDS011;63058;49.424;8.420;2023-03-02T03:26:32;14.07;;;9.50;;
20855;SDS011;63058;49.424;8.420;2023-03-02T03:28:58;13.87;;;8.23;;
20855;SDS011;63058;49.424;8.420;2023-03-02T03:31:25;12.83;;;8.30;;
20855;SDS011;63058;49.424;8.420;2023-03-02T03:33:52;14.60;;;8.80;;
20855;SDS011;63058;49.424;8.420;2023-03-02T03:36:24;14.10;;;8.97;;
20855;SDS011;63058;49.424;8.420;2023-03-02T03:38:51;17.10;;;9.23;;
20855;SDS011;63058;49.424;8.420;2023-03-02T03:41:16;12.90;;;8.67;;
20855;SDS011;63058;49.424;8.420;2023-03-02T03:43:42;14.13;;;8.13;;
20855;SDS011;63058;49.424;8.420;2023-03-02T03:46:07;10.33;;;6.67;;
20855;SDS011;63058;49.424;8.420;2023-03-02T03:48:33;16.07;;;8.73;;
20855;SDS011;63058;49.424;8.420;2023-03-02T03:50:59;12.47;;;7.77;;
20855;SDS011;63058;49.424;8.420;2023-03-02T03:53:25;12.43;;;7.77;;
20855;SDS011;63058;49.424;8.420;2023-03-02T03:55:51;12.10;;;7.70;;
20855;SDS011;63058;49.424;8.420;2023-03-02T03:58:17;11.40;;;7.30;;
20855;SDS011;63058;49.424;8.420;2023-03-02T04:00:43;12.63;;;8.03;;
20855;SDS011;63058;49.424;8.420;2023-03-02T04:03:11;13.03;;;8.20;;
20855;SDS011;63058;49.424;8.420;2023-03-02T04:05:39;11.73;;;7.73;;
20855;SDS011;63058;49.424;8.420;2023-03-02T04:08:04;14.70;;;7.77;;
20855;SDS011;63058;49.424;8.420;2023-03-02T04:10:30;12.17;;;8.07;;
20855;SDS011;63058;49.424;8.420;2023-03-02T04:12:56;14.57;;;7.93;;
20855;SDS011;63058;49.424;8.420;2023-03-02T04:15:22;12.93;;;7.70;;
20855;SDS011;63058;49.424;8.420;2023-03-02T04:17:48;12.13;;;7.93;;
20855;SDS011;63058;49.424;8.420;2023-03-02T04:20:14;11.13;;;7.27;;
20855;SDS011;63058;49.424;8.420;2023-03-02T04:22:41;12.67;;;7.17;;
20855;SDS011;63058;49.424;8.420;2023-03-02T04:25:11;11.43;;;6.80;;
20855;SDS011;63058;49.424;8.420;2023-03-02T04:27:38;13.30;;;8.53;;
20855;SDS011;63058;49.424;8.420;2023-03-02T04:30:05;13.23;;;7.90;;
20855;SDS011;63058;49.424;8.420;2023-03-02T04:32:31;14.13;;;7.70;;
20855;SDS011;63058;49.424;8.420;2023-03-02T04:34:57;12.57;;;7.77;;
20855;SDS011;63058;49.424;8.420;2023-03-02T04:37:22;12.17;;;6.93;;
20855;SDS011;63058;49.424;8.420;2023-03-02T04:39:48;11.23;;;7.70;;
20855;SDS011;63058;49.424;8.420;2023-03-02T04:42:17;14.87;;;7.93;;
20855;SDS011;63058;49.424;8.420;2023-03-02T04:44:44;11.63;;;7.20;;
20855;SDS011;63058;49.424;8.420;2023-03-02T04:47:09;15.47;;;7.87;;
20855;SDS011;63058;49.424;8.420;2023-03-02T04:49:35;13.03;;;7.80;;
20855;SDS011;63058;49.424;8.420;2023-03-02T04:52:01;10.60;;;6.67;;
20855;SDS011;63058;49.424;8.420;2023-03-02T04:54:27;12.13;;;7.87;;
20855;SDS011;63058;49.424;8.420;2023-03-02T04:56:53;12.83;;;7.73;;
20855;SDS011;63058;49.424;8.420;2023-03-02T04:59:20;16.40;;;8.83;;
20855;SDS011;63058;49.424;8.420;2023-03-02T05:01:50;12.33;;;8.33;;
20855;SDS011;63058;49.424;8.420;2023-03-02T05:04:16;13.33;;;8.17;;
20855;SDS011;63058;49.424;8.420;2023-03-02T05:06:42;11.03;;;7.70;;
20855;SDS011;63058;49.424;8.420;2023-03-02T05:09:07;11.63;;;7.67;;
20855;SDS011;63058;49.424;8.420;2023-03-02T05:11:33;13.53;;;8.33;;
20855;SDS011;63058;49.424;8.420;2023-03-02T05:14:00;11.93;;;7.27;;
20855;SDS011;63058;49.424;8.420;2023-03-02T05:16:28;11.93;;;8.00;;
20855;SDS011;63058;49.424;8.420;2023-03-02T05:18:56;14.33;;;8.20;;
20855;SDS011;63058;49.424;8.420;2023-03-02T05:21:22;13.20;;;8.07;;
20855;SDS011;63058;49.424;8.420;2023-03-02T05:23:48;12.70;;;8.13;;
20855;SDS011;63058;49.424;8.420;2023-03-02T05:26:14;14.00;;;8.50;;
20855;SDS011;63058;49.424;8.420;2023-03-02T05:28:40;13.27;;;8.30;;
20855;SDS011;63058;49.424;8.420;2023-03-02T05:31:07;13.17;;;8.67;;
20855;SDS011;63058;49.424;8.420;2023-03-02T05:33:33;14.23;;;8.37;;
20855;SDS011;63058;49.424;8.420;2023-03-02T05:35:59;13.53;;;8.27;;
20855;SDS011;63058;49.424;8.420;2023-03-02T05:38:25;13.03;;;7.73;;
20855;SDS011;63058;49.424;8.420;2023-03-02T05:40:51;15.57;;;9.37;;
20855;SDS011;63058;49.424;8.420;2023-03-02T05:43:18;13.17;;;8.60;;
20855;SDS011;63058;49.424;8.420;2023-03-02T05:45:45;13.10;;;8.70;;
20855;SDS011;63058;49.424;8.420;2023-03-02T05:48:11;20.90;;;10.43;;
20855;SDS011;63058;49.424;8.420;2023-03-02T05:50:37;15.67;;;9.10;;
20855;SDS011;63058;49.424;8.420;2023-03-02T05:53:03;17.97;;;10.13;;
20855;SDS011;63058;49.424;8.420;2023-03-02T05:55:29;15.13;;;9.80;;
20855;SDS011;63058;49.424;8.420;2023-03-02T05:57:55;17.00;;;10.13;;
20855;SDS011;63058;49.424;8.420;2023-03-02T06:00:21;14.73;;;9.83;;
20855;SDS011;63058;49.424;8.420;2023-03-02T06:02:47;14.37;;;8.63;;
20855;SDS011;63058;49.424;8.420;2023-03-02T06:05:14;14.40;;;8.57;;
20855;SDS011;63058;49.424;8.420;2023-03-02T06:07:41;15.13;;;9.23;;
20855;SDS011;63058;49.424;8.420;2023-03-02T06:10:08;13.63;;;8.60;;
20855;SDS011;63058;49.424;8.420;2023-03-02T06:12:35;14.67;;;9.13;;
20855;SDS011;63058;49.424;8.420;2023-03-02T06:15:02;15.20;;;8.67;;
20855;SDS011;63058;49.424;8.420;2023-03-02T06:17:29;13.77;;;8.20;;
20855;SDS011;63058;49.424;8.420;2023-03-02T06:19:55;17.27;;;9.87;;
20855;SDS011;63058;49.424;8.420;2023-03-02T06:22:21;12.60;;;8.60;;
20855;SDS011;63058;49.424;8.420;2023-03-02T06:24:46;17.40;;;9.73;;
20855;SDS011;63058;49.424;8.420;2023-03-02T06:27:12;15.50;;;9.10;;
20855;SDS011;63058;49.424;8.420;2023-03-02T06:29:38;13.60;;;9.10;;
20855;SDS011;63058;49.424;8.420;2023-03-02T06:32:04;14.03;;;8.57;;
20855;SDS011;63058;49.424;8.420;2023-03-02T06:34:30;13.23;;;8.27;;
20855;SDS011;63058;49.424;8.420;2023-03-02T06:36:56;13.83;;;8.57;;
20855;SDS011;63058;49.424;8.420;2023-03-02T06:39:22;15.80;;;9.10;;
20855;SDS011;63058;49.424;8.420;2023-03-02T06:41:47;13.90;;;8.07;;
20855;SDS011;63058;49.424;8.420;2023-03-02T06:44:14;16.37;;;8.87;;
20855;SDS011;63058;49.424;8.420;2023-03-02T06:46:41;11.60;;;7.87;;
20855;SDS011;63058;49.424;8.420;2023-03-02T06:49:08;15.07;;;9.43;;
20855;SDS011;63058;49.424;8.420;2023-03-02T06:51:34;16.10;;;10.83;;
20855;SDS011;63058;49.424;8.420;2023-03-02T06:54:00;16.30;;;9.60;;
20855;SDS011;63058;49.424;8.420;2023-03-02T06:56:26;15.97;;;9.17;;
20855;SDS011;63058;49.424;8.420;2023-03-02T06:58:51;10.87;;;7.10;;
20855;SDS011;63058;49.424;8.420;2023-03-02T07:01:17;13.20;;;8.53;;
20855;SDS011;63058;49.424;8.420;2023-03-02T07:03:43;14.60;;;7.47;;
20855;SDS011;63058;49.424;8.420;2023-03-02T07:06:10;14.30;;;9.67;;
20855;SDS011;63058;49.424;8.420;2023-03-02T07:08:36;14.73;;;8.83;;
20855;SDS011;63058;49.424;8.420;2023-03-02T07:11:06;19.03;;;11.53;;
20855;SDS011;63058;49.424;8.420;2023-03-02T07:13:34;14.50;;;8.97;;
20855;SDS011;63058;49.424;8.420;2023-03-02T07:16:04;17.03;;;10.73;;
20855;SDS011;63058;49.424;8.420;2023-03-02T07:18:31;16.40;;;10.57;;
20855;SDS011;63058;49.424;8.420;2023-03-02T07:20:56;16.47;;;9.80;;
20855;SDS011;63058;49.424;8.420;2023-03-02T07:23:22;19.83;;;11.20;;
20855;SDS011;63058;49.424;8.420;2023-03-02T07:25:48;16.77;;;10.03;;
20855;SDS011;63058;49.424;8.420;2023-03-02T07:28:13;15.07;;;8.70;;
20855;SDS011;63058;49.424;8.420;2023-03-02T07:30:39;14.40;;;8.87;;
20855;SDS011;63058;49.424;8.420;2023-03-02T07:33:04;16.30;;;9.60;;
20855;SDS011;63058;49.424;8.420;2023-03-02T07:35:30;14.87;;;9.83;;
20855;SDS011;63058;49.424;8.420;2023-03-02T07:37:55;18.50;;;10.07;;
20855;SDS011;63058;49.424;8.420;2023-03-02T07:40:21;18.77;;;11.93;;
20855;SDS011;63058;49.424;8.420;2023-03-02T07:42:47;16.60;;;10.03;;
20855;SDS011;63058;49.424;8.420;2023-03-02T07:45:12;14.93;;;9.10;;
20855;SDS011;63058;49.424;8.420;2023-03-02T07:47:38;20.67;;;11.30;;
20855;SDS011;63058;49.424;8.420;2023-03-02T07:50:04;19.40;;;9.67;;
20855;SDS011;63058;49.424;8.420;2023-03-02T07:52:30;14.37;;;8.10;;
20855;SDS011;63058;49.424;8.420;2023-03-02T07:54:56;18.07;;;11.33;;
20855;SDS011;63058;49.424;8.420;2023-03-02T07:57:21;17.87;;;10.03;;
20855;SDS011;63058;49.424;8.420;2023-03-02T07:59:47;17.83;;;11.27;;
20855;SDS011;63058;49.424;8.420;2023-03-02T08:02:14;18.23;;;10.13;;
20855;SDS011;63058;49.424;8.420;2023-03-02T08:04:44;16.60;;;10.43;;
20855;SDS011;63058;49.424;8.420;2023-03-02T08:07:10;15.57;;;9.43;;
20855;SDS011;63058;49.424;8.420;2023-03-02T08:09:36;17.77;;;10.70;;
20855;SDS011;63058;49.424;8.420;2023-03-02T08:12:03;19.90;;;11.90;;
20855;SDS011;63058;49.424;8.420;2023-03-02T08:14:29;17.27;;;9.77;;
20855;SDS011;63058;49.424;8.420;2023-03-02T08:16:55;20.93;;;11.30;;
20855;SDS011;63058;49.424;8.420;2023-03-02T08:19:21;15.80;;;9.60;;
20855;SDS011;63058;49.424;8.420;2023-03-02T08:21:46;19.73;;;10.87;;
20855;SDS011;63058;49.424;8.420;2023-03-02T08:24:12;15.40;;;9.53;;
20855;SDS011;63058;49.424;8.420;2023-03-02T08:26:38;20.17;;;12.03;;
20855;SDS011;63058;49.424;8.420;2023-03-02T08:29:04;19.37;;;11.87;;
20855;SDS011;63058;49.424;8.420;2023-03-02T08:31:29;15.97;;;9.93;;
20855;SDS011;63058;49.424;8.420;2023-03-02T08:33:55;17.93;;;10.47;;
20855;SDS011;63058;49.424;8.420;2023-03-02T08:36:23;21.03;;;12.27;;
20855;SDS011;63058;49.424;8.420;2023-03-02T08:38:48;20.70;;;11.27;;
20855;SDS011;63058;49.424;8.420;2023-03-02T08:41:15;22.53;;;12.10;;
20855;SDS011;63058;49.424;8.420;2023-03-02T08:43:45;23.90;;;14.53;;
20855;SDS011;63058;49.424;8.420;2023-03-02T08:46:12;20.60;;;12.40;;
20855;SDS011;63058;49.424;8.420;2023-03-02T08:48:40;15.87;;;9.70;;
20855;SDS011;63058;49.424;8.420;2023-03-02T08:51:07;15.03;;;9.47;;
20855;SDS011;63058;49.424;8.420;2023-03-02T08:53:36;21.03;;;12.73;;
20855;SDS011;63058;49.424;8.420;2023-03-02T08:56:03;30.63;;;12.90;;
20855;SDS011;63058;49.424;8.420;2023-03-02T08:58:32;18.87;;;11.53;;
20855;SDS011;63058;49.424;8.420;2023-03-02T09:00:58;19.43;;;12.33;;
20855;SDS011;63058;49.424;8.420;2023-03-02T09:03:23;24.03;;;14.77;;
20855;SDS011;63058;49.424;8.420;2023-03-02T09:05:49;22.70;;;14.00;;
20855;SDS011;63058;49.424;8.420;2023-03-02T09:08:15;26.57;;;16.10;;
20855;SDS011;63058;49.424;8.420;2023-03-02T09:10:40;19.13;;;11.47;;
20855;SDS011;63058;49.424;8.420;2023-03-02T09:13:06;17.30;;;11.40;;
20855;SDS011;63058;49.424;8.420;2023-03-02T09:15:32;23.00;;;13.47;;
20855;SDS011;63058;49.424;8.420;2023-03-02T09:17:57;22.20;;;14.20;;
20855;SDS011;63058;49.424;8.420;2023-03-02T09:20:23;23.17;;;13.90;;
20855;SDS011;63058;49.424;8.420;2023-03-02T09:22:49;21.20;;;12.40;;
20855;SDS011;63058;49.424;8.420;2023-03-02T09:25:15;21.07;;;12.70;;
20855;SDS011;63058;49.424;8.420;2023-03-02T09:27:42;20.10;;;11.33;;
20855;SDS011;63058;49.424;8.420;2023-03-02T09:30:09;13.67;;;8.50;;
20855;SDS011;63058;49.424;8.420;2023-03-02T09:32:35;24.83;;;15.43;;
20855;SDS011;63058;49.424;8.420;2023-03-02T09:35:01;19.77;;;11.27;;
20855;SDS011;63058;49.424;8.420;2023-03-02T09:37:27;16.10;;;10.27;;
20855;SDS011;63058;49.424;8.420;2023-03-02T09:39:53;19.97;;;11.73;;
20855;SDS011;63058;49.424;8.420;2023-03-02T09:42:27;18.97;;;10.47;;
20855;SDS011;63058;49.424;8.420;2023-03-02T09:48:05;20.00;;;12.77;;
20855;SDS011;63058;49.424;8.420;2023-03-02T09:54:08;20.40;;;12.87;;
20855;SDS011;63058;49.424;8.420;2023-03-02T09:56:37;16.37;;;9.87;;
20855;SDS011;63058;49.424;8.420;2023-03-02T09:59:14;14.80;;;8.77;;
20855;SDS011;63058;49.424;8.420;2023-03-02T10:01:53;17.13;;;10.13;;
20855;SDS011;63058;49.424;8.420;2023-03-02T10:04:29;20.70;;;11.93;;
20855;SDS011;63058;49.424;8.420;2023-03-02T10:07:00;13.37;;;8.53;;
20855;SDS011;63058;49.424;8.420;2023-03-02T10:09:36;15.67;;;9.90;;
20855;SDS011;63058;49.424;8.420;2023-03-02T10:15:02;14.93;;;9.43;;
20855;SDS011;63058;49.424;8.420;2023-03-02T10:17:50;21.37;;;12.60;;
20855;SDS011;63058;49.424;8.420;2023-03-02T10:20:34;13.43;;;9.00;;
20855;SDS011;63058;49.424;8.420;2023-03-02T10:28:36;16.23;;;9.95;;
20855;SDS011;63058;49.424;8.420;2023-03-02T10:31:09;15.30;;;10.13;;
20855;SDS011;63058;49.424;8.420;2023-03-02T10:33:53;16.80;;;10.98;;
20855;SDS011;63058;49.424;8.420;2023-03-02T10:36:24;14.45;;;9.25;;
20855;SDS011;63058;49.424;8.420;2023-03-02T10:39:02;16.83;;;9.93;;
20855;SDS011;63058;49.424;8.420;2023-03-02T10:41:35;15.93;;;10.60;;
20855;SDS011;63058;49.424;8.420;2023-03-02T10:44:06;17.35;;;11.57;;
20855;SDS011;63058;49.424;8.420;2023-03-02T10:46:40;15.30;;;9.55;;
20855;SDS011;63058;49.424;8.420;2023-03-02T10:52:11;15.70;;;9.82;;
20855;SDS011;63058;49.424;8.420;2023-03-02T10:54:38;14.10;;;9.05;;
20855;SDS011;63058;49.424;8.420;2023-03-02T10:57:12;12.63;;;8.48;;
20855;SDS011;63058;49.424;8.420;2023-03-02T10:59:49;9.32;;;6.40;;
20855;SDS011;63058;49.424;8.420;2023-03-02T11:02:17;15.55;;;8.70;;
20855;SDS011;63058;49.424;8.420;2023-03-02T11:04:58;10.77;;;7.25;;
20855;SDS011;63058;49.424;8.420;2023-03-02T11:07:53;14.70;;;9.75;;
20855;SDS011;63058;49.424;8.420;2023-03-02T11:10:22;11.88;;;8.38;;
20855;SDS011;63058;49.424;8.420;2023-03-02T11:13:00;11.23;;;7.53;;
20855;SDS011;63058;49.424;8.420;2023-03-02T11:15:34;16.50;;;10.07;;
20855;SDS011;63058;49.424;8.420;2023-03-02T11:20:37;14.60;;;9.77;;
20855;SDS011;63058;49.424;8.420;2023-03-02T11:31:45;9.02;;;6.40;;
20855;SDS011;63058;49.424;8.420;2023-03-02T11:34:31;10.93;;;6.68;;
20855;SDS011;63058;49.424;8.420;2023-03-02T11:37:21;18.20;;;11.25;;
20855;SDS011;63058;49.424;8.420;2023-03-02T11:40:04;17.15;;;10.25;;
20855;SDS011;63058;49.424;8.420;2023-03-02T11:42:38;12.40;;;7.88;;
20855;SDS011;63058;49.424;8.420;2023-03-02T11:47:38;12.15;;;7.95;;
20855;SDS011;63058;49.424;8.420;2023-03-02T11:50:09;22.52;;;10.18;;
20855;SDS011;63058;49.424;8.420;2023-03-02T11:52:40;11.65;;;7.30;;
20855;SDS011;63058;49.424;8.420;2023-03-02T11:57:53;10.57;;;6.65;;
20855;SDS011;63058;49.424;8.420;2023-03-02T12:00:27;14.63;;;9.23;;
20855;SDS011;63058;49.424;8.420;2023-03-02T12:03:05;11.07;;;8.05;;
20855;SDS011;63058;49.424;8.420;2023-03-02T12:05:36;12.55;;;8.85;;
20855;SDS011;63058;49.424;8.420;2023-03-02T12:10:38;9.70;;;7.03;;
20855;SDS011;63058;49.424;8.420;2023-03-02T12:15:40;9.77;;;6.75;;
20855;SDS011;63058;49.424;8.420;2023-03-02T12:21:06;9.55;;;6.47;;
20855;SDS011;63058;49.424;8.420;2023-03-02T12:23:52;11.55;;;7.28;;
20855;SDS011;63058;49.424;8.420;2023-03-02T12:31:44;10.10;;;6.78;;
20855;SDS011;63058;49.424;8.420;2023-03-02T12:37:22;12.18;;;6.25;;
20855;SDS011;63058;49.424;8.420;2023-03-02T12:43:02;9.23;;;5.93;;
20855;SDS011;63058;49.424;8.420;2023-03-02T12:48:45;11.30;;;7.75;;
20855;SDS011;63058;49.424;8.420;2023-03-02T12:51:23;12.45;;;6.70;;
20855;SDS011;63058;49.424;8.420;2023-03-02T12:54:00;11.63;;;7.93;;
20855;SDS011;63058;49.424;8.420;2023-03-02T12:56:40;13.07;;;7.78;;
20855;SDS011;63058;49.424;8.420;2023-03-02T12:59:06;11.95;;;8.07;;
20855;SDS011;63058;49.424;8.420;2023-03-02T13:01:41;8.45;;;6.32;;
20855;SDS011;63058;49.424;8.420;2023-03-02T13:04:17;10.10;;;6.88;;
20855;SDS011;63058;49.424;8.420;2023-03-02T13:06:48;10.77;;;7.25;;
20855;SDS011;63058;49.424;8.420;2023-03-02T13:09:13;9.18;;;6.97;;
20855;SDS011;63058;49.424;8.420;2023-03-02T13:11:40;8.40;;;6.32;;
20855;SDS011;63058;49.424;8.420;2023-03-02T13:14:26;12.23;;;8.15;;
20855;SDS011;63058;49.424;8.420;2023-03-02T13:17:02;13.15;;;6.90;;
20855;SDS011;63058;49.424;8.420;2023-03-02T13:19:28;8.85;;;5.70;;
20855;SDS011;63058;49.424;8.420;2023-03-02T13:21:56;8.45;;;5.80;;
20855;SDS011;63058;49.424;8.420;2023-03-02T13:24:27;12.05;;;7.78;;
20855;SDS011;63058;49.424;8.420;2023-03-02T13:27:05;12.63;;;7.82;;
20855;SDS011;63058;49.424;8.420;2023-03-02T13:29:32;14.40;;;9.05;;
20855;SDS011;63058;49.424;8.420;2023-03-02T13:35:00;9.75;;;7.55;;
20855;SDS011;63058;49.424;8.420;2023-03-02T13:37:34;12.27;;;8.15;;
20855;SDS011;63058;49.424;8.420;2023-03-02T13:40:05;11.02;;;7.75;;
20855;SDS011;63058;49.424;8.420;2023-03-02T13:42:51;9.88;;;7.38;;
20855;SDS011;63058;49.424;8.420;2023-03-02T13:45:22;9.02;;;6.13;;
20855;SDS011;63058;49.424;8.420;2023-03-02T13:47:51;8.70;;;6.28;;
20855;SDS011;63058;49.424;8.420;2023-03-02T13:50:18;8.55;;;5.85;;
20855;SDS011;63058;49.424;8.420;2023-03-02T13:52:46;7.97;;;5.60;;
20855;SDS011;63058;49.424;8.420;2023-03-02T13:55:15;10.88;;;6.80;;
20855;SDS011;63058;49.424;8.420;2023-03-02T13:57:42;11.02;;;7.95;;
20855;SDS011;63058;49.424;8.420;2023-03-02T14:00:15;11.00;;;7.25;;
20855;SDS011;63058;49.424;8.420;2023-03-02T14:02:50;10.07;;;6.40;;
20855;SDS011;63058;49.424;8.420;2023-03-02T14:05:20;8.18;;;6.03;;
20855;SDS011;63058;49.424;8.420;2023-03-02T14:07:48;12.93;;;7.43;;
20855;SDS011;63058;49.424;8.420;2023-03-02T14:10:14;9.93;;;6.38;;
20855;SDS011;63058;49.424;8.420;2023-03-02T14:12:42;11.00;;;6.93;;
20855;SDS011;63058;49.424;8.420;2023-03-02T14:15:15;10.00;;;5.88;;
20855;SDS011;63058;49.424;8.420;2023-03-02T14:17:41;11.68;;;7.40;;
20855;SDS011;63058;49.424;8.420;2023-03-02T14:20:11;10.57;;;5.85;;
20855;SDS011;63058;49.424;8.420;2023-03-02T14:22:38;10.27;;;6.20;;
20855;SDS011;63058;49.424;8.420;2023-03-02T14:25:05;10.27;;;7.35;;
20855;SDS011;63058;49.424;8.420;2023-03-02T14:27:31;7.88;;;6.03;;
20855;SDS011;63058;49.424;8.420;2023-03-02T14:29:57;9.38;;;5.63;;
20855;SDS011;63058;49.424;8.420;2023-03-02T14:32:24;6.57;;;5.05;;
20855;SDS011;63058;49.424;8.420;2023-03-02T14:34:49;7.07;;;4.97;;
20855;SDS011;63058;49.424;8.420;2023-03-02T14:37:16;7.72;;;5.35;;
20855;SDS011;63058;49.424;8.420;2023-03-02T14:39:52;13.88;;;7.63;;
20855;SDS011;63058;49.424;8.420;2023-03-02T14:42:19;9.68;;;6.20;;
20855;SDS011;63058;49.424;8.420;2023-03-02T14:44:46;8.00;;;6.00;;
20855;SDS011;63058;49.424;8.420;2023-03-02T14:47:14;14.20;;;6.55;;
20855;SDS011;63058;49.424;8.420;2023-03-02T14:49:43;9.32;;;7.03;;
20855;SDS011;63058;49.424;8.420;2023-03-02T14:52:22;12.43;;;6.47;;
20855;SDS011;63058;49.424;8.420;2023-03-02T14:55:04;9.60;;;6.90;;
20855;SDS011;63058;49.424;8.420;2023-03-02T14:57:37;10.57;;;7.00;;
20855;SDS011;63058;49.424;8.420;2023-03-02T15:00:03;7.97;;;5.65;;
20855;SDS011;63058;49.424;8.420;2023-03-02T15:02:30;11.80;;;7.35;;
20855;SDS011;63058;49.424;8.420;2023-03-02T15:04:55;14.18;;;7.80;;
20855;SDS011;63058;49.424;8.420;2023-03-02T15:07:21;10.40;;;7.07;;
20855;SDS011;63058;49.424;8.420;2023-03-02T15:09:48;10.02;;;6.55;;
20855;SDS011;63058;49.424;8.420;2023-03-02T15:12:14;7.63;;;5.82;;
20855;SDS011;63058;49.424;8.420;2023-03-02T15:14:39;8.90;;;6.38;;
20855;SDS011;63058;49.424;8.420;2023-03-02T15:17:05;12.93;;;6.90;;
20855;SDS011;63058;49.424;8.420;2023-03-02T15:19:31;9.20;;;6.75;;
20855;SDS011;63058;49.424;8.420;2023-03-02T15:21:57;11.13;;;6.05;;
20855;SDS011;63058;49.424;8.420;2023-03-02T15:24:22;8.65;;;6.18;;
20855;SDS011;63058;49.424;8.420;2023-03-02T15:26:49;7.65;;;5.75;;
20855;SDS011;63058;49.424;8.420;2023-03-02T15:29:15;8.70;;;6.25;;
20855;SDS011;63058;49.424;8.420;2023-03-02T15:31:41;11.23;;;6.88;;
20855;SDS011;63058;49.424;8.420;2023-03-02T15:34:07;13.60;;;8.57;;
20855;SDS011;63058;49.424;8.420;2023-03-02T15:36:33;9.20;;;6.85;;
20855;SDS011;63058;49.424;8.420;2023-03-02T15:38:58;12.60;;;6.93;;
20855;SDS011;63058;49.424;8.420;2023-03-02T15:41:24;8.23;;;5.88;;
20855;SDS011;63058;49.424;8.420;2023-03-02T15:43:50;12.90;;;7.95;;
20855;SDS011;63058;49.424;8.420;2023-03-02T15:46:17;11.50;;;6.93;;
20855;SDS011;63058;49.424;8.420;2023-03-02T15:48:44;7.70;;;5.25;;
20855;SDS011;63058;49.424;8.420;2023-03-02T15:51:10;7.95;;;5.20;;
20855;SDS011;63058;49.424;8.420;2023-03-02T15:53:36;8.27;;;4.55;;
20855;SDS011;63058;49.424;8.420;2023-03-02T15:56:03;11.43;;;7.18;;